sensor_id;sensor_type;location;lat;lon;timestamp;pressure;altitude;pressure_sealevel;temperature;humidity
48652;BME280;34442;52.362;-1.302;2023-07-30T00:01:40;99371.78;;;18.00;85.94
48652;BME280;34442;52.362;-1.302;2023-07-30T00:04:05;99368.53;;;17.98;86.12
48652;BME280;34442;52.362;-1.302;2023-07-30T00:06:31;99366.91;;;17.97;86.14
48652;BME280;34442;52.362;-1.302;2023-07-30T00:08:56;99374.50;;;18.00;86.31
48652;BME280;34442;52.362;-1.302;2023-07-30T00:11:22;99376.72;;;17.98;86.38
48652;BME280;34442;52.362;-1.302;2023-07-30T00:13:47;99376.94;;;18.02;86.38
48652;BME280;34442;52.362;-1.302;2023-07-30T00:16:13;99365.03;;;17.93;86.86
48652;BME280;34442;52.362;-1.302;2023-07-30T00:18:38;99370.47;;;17.93;87.04
48652;BME280;34442;52.362;-1.302;2023-07-30T00:21:04;99366.09;;;17.97;86.75
48652;BME280;34442;52.362;-1.302;2023-07-30T00:23:29;99369.38;;;17.94;87.08
48652;BME280;34442;52.362;-1.302;2023-07-30T00:25:54;99375.38;;;17.85;87.12
48652;BME280;34442;52.362;-1.302;2023-07-30T00:28:20;99372.66;;;17.85;87.28
48652;BME280;34442;52.362;-1.302;2023-07-30T00:30:45;99373.81;;;17.74;88.21
48652;BME280;34442;52.362;-1.302;2023-07-30T00:33:11;99380.88;;;17.70;88.66
48652;BME280;34442;52.362;-1.302;2023-07-30T00:35:37;99378.16;;;17.75;88.33
48652;BME280;34442;52.362;-1.302;2023-07-30T00:38:02;99383.00;;;17.73;88.25
48652;BME280;34442;52.362;-1.302;2023-07-30T00:40:28;99374.59;;;17.80;87.91
48652;BME280;34442;52.362;-1.302;2023-07-30T00:42:53;99384.13;;;17.72;88.09
48652;BME280;34442;52.362;-1.302;2023-07-30T00:45:19;99381.41;;;17.77;87.91
48652;BME280;34442;52.362;-1.302;2023-07-30T00:47:44;99373.50;;;17.81;88.17
48652;BME280;34442;52.362;-1.302;2023-07-30T00:50:11;99378.44;;;17.79;88.09
48652;BME280;34442;52.362;-1.302;2023-07-30T00:52:38;99383.56;;;17.80;87.91
48652;BME280;34442;52.362;-1.302;2023-07-30T00:55:04;99382.78;;;17.75;88.73
48652;BME280;34442;52.362;-1.302;2023-07-30T00:57:32;99382.78;;;17.70;88.67
48652;BME280;34442;52.362;-1.302;2023-07-30T00:59:58;99377.59;;;17.73;88.64
48652;BME280;34442;52.362;-1.302;2023-07-30T01:02:24;99384.13;;;17.72;88.84
48652;BME280;34442;52.362;-1.302;2023-07-30T01:04:49;99382.53;;;17.66;89.24
48652;BME280;34442;52.362;-1.302;2023-07-30T01:07:15;99389.56;;;17.72;89.42
48652;BME280;34442;52.362;-1.302;2023-07-30T01:09:41;99389.03;;;17.70;89.58
48652;BME280;34442;52.362;-1.302;2023-07-30T01:12:07;99387.13;;;17.71;89.63
48652;BME280;34442;52.362;-1.302;2023-07-30T01:14:33;99388.50;;;17.63;90.02
48652;BME280;34442;52.362;-1.302;2023-07-30T01:17:04;99386.88;;;17.62;90.15
48652;BME280;34442;52.362;-1.302;2023-07-30T01:19:29;99383.34;;;17.67;90.12
48652;BME280;34442;52.362;-1.302;2023-07-30T01:21:55;99386.91;;;17.57;90.39
48652;BME280;34442;52.362;-1.302;2023-07-30T01:24:20;99387.16;;;17.60;90.56
48652;BME280;34442;52.362;-1.302;2023-07-30T01:26:54;99388.53;;;17.58;91.19
48652;BME280;34442;52.362;-1.302;2023-07-30T01:29:32;99384.47;;;17.50;91.52
48652;BME280;34442;52.362;-1.302;2023-07-30T01:32:02;99382.31;;;17.47;91.29
48652;BME280;34442;52.362;-1.302;2023-07-30T01:34:30;99376.63;;;17.49;91.08
48652;BME280;34442;52.362;-1.302;2023-07-30T01:37:00;99384.47;;;17.50;91.20
48652;BME280;34442;52.362;-1.302;2023-07-30T01:39:26;99384.75;;;17.49;91.23
48652;BME280;34442;52.362;-1.302;2023-07-30T01:41:55;99377.13;;;17.51;91.45
48652;BME280;34442;52.362;-1.302;2023-07-30T01:44:20;99382.56;;;17.51;91.27
48652;BME280;34442;52.362;-1.302;2023-07-30T01:46:46;99379.88;;;17.46;91.85
48652;BME280;34442;52.362;-1.302;2023-07-30T01:49:11;99377.97;;;17.46;91.69
48652;BME280;34442;52.362;-1.302;2023-07-30T01:51:37;99381.22;;;17.48;92.02
48652;BME280;34442;52.362;-1.302;2023-07-30T01:54:02;99386.66;;;17.43;92.26
48652;BME280;34442;52.362;-1.302;2023-07-30T01:56:27;99386.13;;;17.46;92.42
48652;BME280;34442;52.362;-1.302;2023-07-30T01:58:53;99391.84;;;17.34;93.36
48652;BME280;34442;52.362;-1.302;2023-07-30T02:01:18;99389.69;;;17.36;92.80
48652;BME280;34442;52.362;-1.302;2023-07-30T02:03:43;99383.94;;;17.43;93.07
48652;BME280;34442;52.362;-1.302;2023-07-30T02:06:09;99385.63;;;17.34;93.20
48652;BME280;34442;52.362;-1.302;2023-07-30T02:08:36;99388.03;;;17.35;93.28
48652;BME280;34442;52.362;-1.302;2023-07-30T02:11:01;99396.50;;;17.29;93.55
48652;BME280;34442;52.362;-1.302;2023-07-30T02:13:27;99395.38;;;17.35;93.30
48652;BME280;34442;52.362;-1.302;2023-07-30T02:15:52;99401.38;;;17.37;93.67
48652;BME280;34442;52.362;-1.302;2023-07-30T02:18:18;99400.53;;;17.47;93.24
48652;BME280;34442;52.362;-1.302;2023-07-30T02:20:43;99403.78;;;17.49;93.25
48652;BME280;34442;52.362;-1.302;2023-07-30T02:23:08;99403.47;;;17.60;92.97
48652;BME280;34442;52.362;-1.302;2023-07-30T02:25:34;99407.81;;;17.61;92.80
48652;BME280;34442;52.362;-1.302;2023-07-30T02:28:00;99411.34;;;17.62;93.29
48652;BME280;34442;52.362;-1.302;2023-07-30T02:30:26;99405.88;;;17.67;92.99
48652;BME280;34442;52.362;-1.302;2023-07-30T02:32:52;99407.25;;;17.65;93.08
48652;BME280;34442;52.362;-1.302;2023-07-30T02:35:17;99406.19;;;17.60;93.62
48652;BME280;34442;52.362;-1.302;2023-07-30T02:37:43;99409.97;;;17.65;93.34
48652;BME280;34442;52.362;-1.302;2023-07-30T02:40:08;99411.03;;;17.69;93.28
48652;BME280;34442;52.362;-1.302;2023-07-30T02:42:34;99417.31;;;17.64;93.86
48652;BME280;34442;52.362;-1.302;2023-07-30T02:44:59;99415.16;;;17.61;93.71
48652;BME280;34442;52.362;-1.302;2023-07-30T02:47:25;99415.66;;;17.68;93.50
48652;BME280;34442;52.362;-1.302;2023-07-30T02:49:50;99415.41;;;17.70;93.76
48652;BME280;34442;52.362;-1.302;2023-07-30T02:52:15;99421.91;;;17.74;93.58
48652;BME280;34442;52.362;-1.302;2023-07-30T02:54:41;99424.38;;;17.65;93.93
48652;BME280;34442;52.362;-1.302;2023-07-30T02:57:06;99426.84;;;17.61;94.49
48652;BME280;34442;52.362;-1.302;2023-07-30T02:59:31;99427.66;;;17.62;94.69
48652;BME280;34442;52.362;-1.302;2023-07-30T03:02:01;99421.97;;;17.58;95.20
48652;BME280;34442;52.362;-1.302;2023-07-30T03:04:26;99416.53;;;17.58;96.27
48652;BME280;34442;52.362;-1.302;2023-07-30T03:06:52;99413.84;;;17.53;96.76
48652;BME280;34442;52.362;-1.302;2023-07-30T03:09:17;99420.06;;;17.59;97.07
48652;BME280;34442;52.362;-1.302;2023-07-30T03:11:43;99419.25;;;17.53;97.42
48652;BME280;34442;52.362;-1.302;2023-07-30T03:14:08;99410.00;;;17.59;97.51
48652;BME280;34442;52.362;-1.302;2023-07-30T03:16:33;99406.19;;;17.55;97.79
48652;BME280;34442;52.362;-1.302;2023-07-30T03:18:59;99409.22;;;17.49;98.35
48652;BME280;34442;52.362;-1.302;2023-07-30T03:21:24;99406.22;;;17.50;98.14
48652;BME280;34442;52.362;-1.302;2023-07-30T03:23:49;99402.44;;;17.46;98.39
48652;BME280;34442;52.362;-1.302;2023-07-30T03:26:15;99401.88;;;17.49;98.12
48652;BME280;34442;52.362;-1.302;2023-07-30T03:28:40;99400.50;;;17.52;98.02
48652;BME280;34442;52.362;-1.302;2023-07-30T03:31:06;99405.94;;;17.47;98.69
48652;BME280;34442;52.362;-1.302;2023-07-30T03:33:31;99401.88;;;17.49;98.68
48652;BME280;34442;52.362;-1.302;2023-07-30T03:35:56;99406.75;;;17.52;98.13
48652;BME280;34442;52.362;-1.302;2023-07-30T03:38:22;99405.41;;;17.50;98.32
48652;BME280;34442;52.362;-1.302;2023-07-30T03:40:47;99403.53;;;17.45;98.49
48652;BME280;34442;52.362;-1.302;2023-07-30T03:43:12;99393.75;;;17.34;98.82
48652;BME280;34442;52.362;-1.302;2023-07-30T03:45:38;99403.00;;;17.28;99.04
48652;BME280;34442;52.362;-1.302;2023-07-30T03:48:03;99396.50;;;17.19;99.79
48652;BME280;34442;52.362;-1.302;2023-07-30T03:50:29;99398.94;;;17.15;99.85
48652;BME280;34442;52.362;-1.302;2023-07-30T03:52:54;99404.94;;;17.17;100.00
48652;BME280;34442;52.362;-1.302;2023-07-30T03:55:20;99396.53;;;17.14;100.00
48652;BME280;34442;52.362;-1.302;2023-07-30T03:57:45;99397.63;;;17.13;100.00
48652;BME280;34442;52.362;-1.302;2023-07-30T04:00:10;99403.84;;;17.18;99.88
48652;BME280;34442;52.362;-1.302;2023-07-30T04:02:36;99403.00;;;17.23;99.56
48652;BME280;34442;52.362;-1.302;2023-07-30T04:05:02;99411.16;;;17.28;99.56
48652;BME280;34442;52.362;-1.302;2023-07-30T04:07:27;99411.16;;;17.33;99.67
48652;BME280;34442;52.362;-1.302;2023-07-30T04:09:53;99407.38;;;17.29;99.89
48652;BME280;34442;52.362;-1.302;2023-07-30T04:12:18;99407.91;;;17.26;99.76
48652;BME280;34442;52.362;-1.302;2023-07-30T04:14:46;99405.19;;;17.26;99.37
48652;BME280;34442;52.362;-1.302;2023-07-30T04:17:12;99407.34;;;17.24;99.26
48652;BME280;34442;52.362;-1.302;2023-07-30T04:19:37;99415.25;;;17.20;99.38
48652;BME280;34442;52.362;-1.302;2023-07-30T04:22:02;99416.63;;;17.13;99.99
48652;BME280;34442;52.362;-1.302;2023-07-30T04:24:28;99422.03;;;17.07;100.00
48652;BME280;34442;52.362;-1.302;2023-07-30T04:26:53;99419.06;;;17.04;100.00
48652;BME280;34442;52.362;-1.302;2023-07-30T04:29:18;99411.47;;;17.01;100.00
48652;BME280;34442;52.362;-1.302;2023-07-30T04:31:44;99413.38;;;17.00;100.00
48652;BME280;34442;52.362;-1.302;2023-07-30T04:34:09;99425.31;;;16.94;100.00
48652;BME280;34442;52.362;-1.302;2023-07-30T04:36:34;99430.47;;;16.91;100.00
48652;BME280;34442;52.362;-1.302;2023-07-30T04:39:00;99427.50;;;16.87;100.00
48652;BME280;34442;52.362;-1.302;2023-07-30T04:41:25;99432.09;;;16.86;100.00
48652;BME280;34442;52.362;-1.302;2023-07-30T04:43:50;99422.59;;;16.89;100.00
48652;BME280;34442;52.362;-1.302;2023-07-30T04:46:16;99429.41;;;16.92;100.00
48652;BME280;34442;52.362;-1.302;2023-07-30T04:48:41;99417.72;;;16.96;100.00
48652;BME280;34442;52.362;-1.302;2023-07-30T04:51:06;99420.69;;;16.95;100.00
48652;BME280;34442;52.362;-1.302;2023-07-30T04:53:32;99438.09;;;17.04;100.00
48652;BME280;34442;52.362;-1.302;2023-07-30T04:55:57;99431.28;;;17.06;100.00
48652;BME280;34442;52.362;-1.302;2023-07-30T04:58:23;99442.69;;;17.08;100.00
48652;BME280;34442;52.362;-1.302;2023-07-30T05:00:49;99436.16;;;17.15;100.00
48652;BME280;34442;52.362;-1.302;2023-07-30T05:03:14;99435.63;;;17.18;100.00
48652;BME280;34442;52.362;-1.302;2023-07-30T05:05:40;99431.00;;;17.23;100.00
48652;BME280;34442;52.362;-1.302;2023-07-30T05:08:06;99438.59;;;17.26;100.00
48652;BME280;34442;52.362;-1.302;2023-07-30T05:10:31;99438.88;;;17.30;100.00
48652;BME280;34442;52.362;-1.302;2023-07-30T05:12:56;99430.44;;;17.26;100.00
48652;BME280;34442;52.362;-1.302;2023-07-30T05:15:22;99443.50;;;17.19;100.00
48652;BME280;34442;52.362;-1.302;2023-07-30T05:17:47;99437.81;;;17.21;100.00
48652;BME280;34442;52.362;-1.302;2023-07-30T05:20:13;99441.88;;;17.28;100.00
48652;BME280;34442;52.362;-1.302;2023-07-30T05:22:38;99446.72;;;17.31;100.00
48652;BME280;34442;52.362;-1.302;2023-07-30T05:25:04;99451.91;;;17.28;100.00
48652;BME280;34442;52.362;-1.302;2023-07-30T05:27:30;99454.06;;;17.31;100.00
48652;BME280;34442;52.362;-1.302;2023-07-30T05:29:57;99458.69;;;17.35;100.00
48652;BME280;34442;52.362;-1.302;2023-07-30T05:32:22;99463.28;;;17.40;100.00
48652;BME280;34442;52.362;-1.302;2023-07-30T05:34:48;99462.50;;;17.45;100.00
48652;BME280;34442;52.362;-1.302;2023-07-30T05:37:13;99462.75;;;17.43;100.00
48652;BME280;34442;52.362;-1.302;2023-07-30T05:39:39;99457.88;;;17.45;100.00
48652;BME280;34442;52.362;-1.302;2023-07-30T05:42:04;99457.31;;;17.48;100.00
48652;BME280;34442;52.362;-1.302;2023-07-30T05:44:30;99458.13;;;17.49;100.00
48652;BME280;34442;52.362;-1.302;2023-07-30T05:46:57;99467.38;;;17.53;100.00
48652;BME280;34442;52.362;-1.302;2023-07-30T05:49:24;99468.72;;;17.55;100.00
48652;BME280;34442;52.362;-1.302;2023-07-30T05:51:49;99463.00;;;17.52;100.00
48652;BME280;34442;52.362;-1.302;2023-07-30T05:54:16;99464.91;;;17.51;100.00
48652;BME280;34442;52.362;-1.302;2023-07-30T05:56:42;99462.47;;;17.55;100.00
48652;BME280;34442;52.362;-1.302;2023-07-30T05:59:07;99455.38;;;17.64;100.00
48652;BME280;34442;52.362;-1.302;2023-07-30T06:01:32;99456.19;;;17.65;100.00
48652;BME280;34442;52.362;-1.302;2023-07-30T06:03:58;99444.53;;;17.54;100.00
48652;BME280;34442;52.362;-1.302;2023-07-30T06:06:23;99466.81;;;17.51;100.00
48652;BME280;34442;52.362;-1.302;2023-07-30T06:08:53;99460.41;;;18.12;96.84
48652;BME280;34442;52.362;-1.302;2023-07-30T06:11:19;99468.44;;;17.57;99.32
48652;BME280;34442;52.362;-1.302;2023-07-30T06:13:45;99466.00;;;17.40;99.56
48652;BME280;34442;52.362;-1.302;2023-07-30T06:16:11;99471.19;;;17.42;98.83
48652;BME280;34442;52.362;-1.302;2023-07-30T06:18:36;99467.09;;;17.44;98.11
48652;BME280;34442;52.362;-1.302;2023-07-30T06:21:02;99475.53;;;17.43;98.25
48652;BME280;34442;52.362;-1.302;2023-07-30T06:23:27;99479.88;;;17.44;98.04
48652;BME280;34442;52.362;-1.302;2023-07-30T06:25:53;99472.00;;;17.42;97.81
48652;BME280;34442;52.362;-1.302;2023-07-30T06:28:18;99476.06;;;17.50;97.93
48652;BME280;34442;52.362;-1.302;2023-07-30T06:30:43;99473.09;;;17.41;98.00
48652;BME280;34442;52.362;-1.302;2023-07-30T06:33:09;99475.00;;;17.30;98.51
48652;BME280;34442;52.362;-1.302;2023-07-30T06:35:34;99472.28;;;17.30;98.02
48652;BME280;34442;52.362;-1.302;2023-07-30T06:38:00;99482.59;;;17.18;98.43
48652;BME280;34442;52.362;-1.302;2023-07-30T06:40:25;99487.50;;;17.26;97.88
48652;BME280;34442;52.362;-1.302;2023-07-30T06:42:51;99501.34;;;17.30;97.68
48652;BME280;34442;52.362;-1.302;2023-07-30T06:45:17;99483.41;;;17.39;96.88
48652;BME280;34442;52.362;-1.302;2023-07-30T06:47:42;99483.16;;;17.30;97.60
48652;BME280;34442;52.362;-1.302;2023-07-30T06:50:07;99505.16;;;17.34;97.86
48652;BME280;34442;52.362;-1.302;2023-07-30T06:52:34;99502.19;;;17.41;97.36
48652;BME280;34442;52.362;-1.302;2023-07-30T06:55:00;99504.31;;;17.54;96.89
48652;BME280;34442;52.362;-1.302;2023-07-30T06:57:26;99495.09;;;17.50;97.53
48652;BME280;34442;52.362;-1.302;2023-07-30T06:59:51;99495.06;;;17.55;97.54
48652;BME280;34442;52.362;-1.302;2023-07-30T07:02:17;99498.34;;;17.62;97.69
48652;BME280;34442;52.362;-1.302;2023-07-30T07:04:42;99508.09;;;17.68;97.17
48652;BME280;34442;52.362;-1.302;2023-07-30T07:07:08;99497.78;;;17.70;97.38
48652;BME280;34442;52.362;-1.302;2023-07-30T07:09:33;99501.56;;;17.84;97.00
48652;BME280;34442;52.362;-1.302;2023-07-30T07:11:58;99503.47;;;17.94;96.83
48652;BME280;34442;52.362;-1.302;2023-07-30T07:14:25;99503.72;;;17.88;97.37
48652;BME280;34442;52.362;-1.302;2023-07-30T07:16:52;99498.03;;;17.69;98.70
48652;BME280;34442;52.362;-1.302;2023-07-30T07:19:17;99499.16;;;17.78;98.07
48652;BME280;34442;52.362;-1.302;2023-07-30T07:21:43;99508.63;;;17.85;98.26
48652;BME280;34442;52.362;-1.302;2023-07-30T07:24:09;99521.69;;;17.83;98.61
48652;BME280;34442;52.362;-1.302;2023-07-30T07:26:34;99525.97;;;18.05;97.67
48652;BME280;34442;52.362;-1.302;2023-07-30T07:29:00;99526.50;;;18.12;97.12
48652;BME280;34442;52.362;-1.302;2023-07-30T07:31:25;99521.59;;;18.14;96.70
48652;BME280;34442;52.362;-1.302;2023-07-30T07:33:51;99521.59;;;18.14;96.82
48652;BME280;34442;52.362;-1.302;2023-07-30T07:36:16;99528.09;;;18.28;96.36
48652;BME280;34442;52.362;-1.302;2023-07-30T07:38:42;99517.16;;;18.33;95.89
48652;BME280;34442;52.362;-1.302;2023-07-30T07:41:14;99515.84;;;18.26;96.34
48652;BME280;34442;52.362;-1.302;2023-07-30T07:43:41;99522.59;;;18.33;95.84
48652;BME280;34442;52.362;-1.302;2023-07-30T07:46:07;99522.91;;;18.32;95.56
48652;BME280;34442;52.362;-1.302;2023-07-30T07:48:42;99527.75;;;18.35;94.96
48652;BME280;34442;52.362;-1.302;2023-07-30T07:51:11;99533.53;;;18.28;95.11
48652;BME280;34442;52.362;-1.302;2023-07-30T07:53:37;99545.44;;;18.38;94.37
48652;BME280;34442;52.362;-1.302;2023-07-30T07:56:03;99543.81;;;18.37;94.21
48652;BME280;34442;52.362;-1.302;2023-07-30T07:58:28;99555.75;;;18.46;94.29
48652;BME280;34442;52.362;-1.302;2023-07-30T08:00:55;99555.75;;;18.46;94.13
48652;BME280;34442;52.362;-1.302;2023-07-30T08:03:21;99548.13;;;18.53;93.99
48652;BME280;34442;52.362;-1.302;2023-07-30T08:05:47;99545.91;;;18.55;92.88
48652;BME280;34442;52.362;-1.302;2023-07-30T08:08:12;99555.16;;;18.64;92.08
48652;BME280;34442;52.362;-1.302;2023-07-30T08:10:38;99550.13;;;18.87;91.20
48652;BME280;34442;52.362;-1.302;2023-07-30T08:13:04;99561.06;;;18.81;91.20
48652;BME280;34442;52.362;-1.302;2023-07-30T08:15:30;99550.91;;;18.92;90.91
48652;BME280;34442;52.362;-1.302;2023-07-30T08:17:55;99551.44;;;18.94;90.94
48652;BME280;34442;52.362;-1.302;2023-07-30T08:20:21;99551.16;;;18.96;90.74
48652;BME280;34442;52.362;-1.302;2023-07-30T08:22:46;99552.69;;;19.12;89.86
48652;BME280;34442;52.362;-1.302;2023-07-30T08:25:12;99558.06;;;19.22;89.46
48652;BME280;34442;52.362;-1.302;2023-07-30T08:27:37;99545.88;;;19.15;89.45
48652;BME280;34442;52.362;-1.302;2023-07-30T08:30:02;99552.88;;;19.26;88.85
48652;BME280;34442;52.362;-1.302;2023-07-30T08:32:28;99548.59;;;19.15;88.78
48652;BME280;34442;52.362;-1.302;2023-07-30T08:34:53;99554.81;;;19.20;88.22
48652;BME280;34442;52.362;-1.302;2023-07-30T08:37:19;99553.69;;;19.26;87.69
48652;BME280;34442;52.362;-1.302;2023-07-30T08:39:44;99550.19;;;19.50;86.76
48652;BME280;34442;52.362;-1.302;2023-07-30T08:42:10;99555.59;;;19.60;86.17
48652;BME280;34442;52.362;-1.302;2023-07-30T08:44:35;99557.16;;;19.71;86.01
48652;BME280;34442;52.362;-1.302;2023-07-30T08:47:01;99549.75;;;20.01;85.42
48652;BME280;34442;52.362;-1.302;2023-07-30T08:49:26;99569.13;;;20.23;84.71
48652;BME280;34442;52.362;-1.302;2023-07-30T08:51:58;99560.25;;;20.37;84.07
48652;BME280;34442;52.362;-1.302;2023-07-30T08:54:24;99562.81;;;20.28;84.87
48652;BME280;34442;52.362;-1.302;2023-07-30T08:56:51;99561.56;;;20.20;85.27
48652;BME280;34442;52.362;-1.302;2023-07-30T08:59:18;99563.81;;;20.13;85.69
48652;BME280;34442;52.362;-1.302;2023-07-30T09:01:46;99561.94;;;20.32;84.96
48652;BME280;34442;52.362;-1.302;2023-07-30T09:04:13;99558.03;;;20.39;84.60
48652;BME280;34442;52.362;-1.302;2023-07-30T09:06:40;99563.16;;;20.45;84.44
48652;BME280;34442;52.362;-1.302;2023-07-30T09:09:06;99559.97;;;20.62;84.03
48652;BME280;34442;52.362;-1.302;2023-07-30T09:11:34;99561.28;;;20.65;83.96
48652;BME280;34442;52.362;-1.302;2023-07-30T09:14:01;99555.00;;;20.40;84.86
48652;BME280;34442;52.362;-1.302;2023-07-30T09:16:27;99564.28;;;20.20;85.34
48652;BME280;34442;52.362;-1.302;2023-07-30T09:18:52;99572.25;;;20.12;85.84
48652;BME280;34442;52.362;-1.302;2023-07-30T09:21:32;99568.41;;;20.18;82.73
48652;BME280;34442;52.362;-1.302;2023-07-30T09:23:57;99580.25;;;20.08;84.42
48652;BME280;34442;52.362;-1.302;2023-07-30T09:26:39;99581.72;;;19.95;83.86
48652;BME280;34442;52.362;-1.302;2023-07-30T09:29:08;99586.13;;;19.91;83.48
48652;BME280;34442;52.362;-1.302;2023-07-30T09:31:52;99583.50;;;20.10;79.88
48652;BME280;34442;52.362;-1.302;2023-07-30T09:34:22;99586.13;;;20.20;82.61
48652;BME280;34442;52.362;-1.302;2023-07-30T09:36:51;99596.44;;;20.23;81.46
48652;BME280;34442;52.362;-1.302;2023-07-30T09:39:17;99584.16;;;20.50;80.33
48652;BME280;34442;52.362;-1.302;2023-07-30T09:41:43;99582.03;;;20.42;80.29
48652;BME280;34442;52.362;-1.302;2023-07-30T09:44:09;99582.63;;;20.39;80.05
48652;BME280;34442;52.362;-1.302;2023-07-30T09:46:45;99588.31;;;20.66;77.56
48652;BME280;34442;52.362;-1.302;2023-07-30T09:49:11;99585.84;;;20.89;79.08
48652;BME280;34442;52.362;-1.302;2023-07-30T09:51:38;99573.34;;;21.01;78.09
48652;BME280;34442;52.362;-1.302;2023-07-30T09:54:06;99581.47;;;20.88;77.94
48652;BME280;34442;52.362;-1.302;2023-07-30T09:56:32;99583.19;;;20.84;77.61
48652;BME280;34442;52.362;-1.302;2023-07-30T09:58:57;99584.28;;;21.01;76.79
48652;BME280;34442;52.362;-1.302;2023-07-30T10:01:23;99580.81;;;21.15;76.34
48652;BME280;34442;52.362;-1.302;2023-07-30T10:03:52;99585.19;;;21.35;76.25
48652;BME280;34442;52.362;-1.302;2023-07-30T10:06:18;99582.81;;;21.28;76.31
48652;BME280;34442;52.362;-1.302;2023-07-30T10:08:45;99583.69;;;21.23;76.96
48652;BME280;34442;52.362;-1.302;2023-07-30T10:11:12;99585.81;;;21.26;77.05
48652;BME280;34442;52.362;-1.302;2023-07-30T10:13:39;99593.75;;;21.28;76.43
48652;BME280;34442;52.362;-1.302;2023-07-30T10:16:11;99589.91;;;21.29;73.94
48652;BME280;34442;52.362;-1.302;2023-07-30T10:18:41;99585.13;;;21.40;75.10
48652;BME280;34442;52.362;-1.302;2023-07-30T10:21:22;99585.31;;;21.24;71.13
48652;BME280;34442;52.362;-1.302;2023-07-30T10:23:59;99587.75;;;21.26;72.66
48652;BME280;34442;52.362;-1.302;2023-07-30T10:26:29;99585.00;;;21.26;75.26
48652;BME280;34442;52.362;-1.302;2023-07-30T10:31:39;99583.09;;;21.45;66.40
48652;BME280;34442;52.362;-1.302;2023-07-30T10:34:09;99588.41;;;21.55;74.58
48652;BME280;34442;52.362;-1.302;2023-07-30T10:36:49;99580.59;;;21.82;70.30
48652;BME280;34442;52.362;-1.302;2023-07-30T10:39:20;99577.41;;;21.42;74.94
48652;BME280;34442;52.362;-1.302;2023-07-30T10:41:50;99574.56;;;21.33;74.46
48652;BME280;34442;52.362;-1.302;2023-07-30T10:44:31;99574.84;;;21.13;74.71
48652;BME280;34442;52.362;-1.302;2023-07-30T10:46:59;99581.69;;;21.10;75.93
48652;BME280;34442;52.362;-1.302;2023-07-30T10:49:25;99582.34;;;21.02;75.78
48652;BME280;34442;52.362;-1.302;2023-07-30T10:51:52;99582.09;;;21.03;75.35
48652;BME280;34442;52.362;-1.302;2023-07-30T10:54:18;99578.75;;;20.88;75.36
48652;BME280;34442;52.362;-1.302;2023-07-30T10:56:44;99580.66;;;21.06;74.83
48652;BME280;34442;52.362;-1.302;2023-07-30T10:59:10;99585.78;;;21.13;74.64
48652;BME280;34442;52.362;-1.302;2023-07-30T11:01:43;99577.34;;;21.28;72.91
48652;BME280;34442;52.362;-1.302;2023-07-30T11:04:19;99580.19;;;21.55;72.81
48652;BME280;34442;52.362;-1.302;2023-07-30T11:06:50;99578.06;;;21.52;70.61
48652;BME280;34442;52.362;-1.302;2023-07-30T11:09:19;99572.53;;;21.39;72.14
48652;BME280;34442;52.362;-1.302;2023-07-30T11:11:46;99584.94;;;21.50;72.70
48652;BME280;34442;52.362;-1.302;2023-07-30T11:14:18;99585.84;;;21.45;71.12
48652;BME280;34442;52.362;-1.302;2023-07-30T11:16:52;99589.16;;;21.61;71.58
48652;BME280;34442;52.362;-1.302;2023-07-30T11:19:18;99586.66;;;21.78;72.13
48652;BME280;34442;52.362;-1.302;2023-07-30T11:21:45;99597.69;;;21.73;72.38
48652;BME280;34442;52.362;-1.302;2023-07-30T11:24:11;99596.78;;;21.78;72.06
48652;BME280;34442;52.362;-1.302;2023-07-30T11:26:36;99596.72;;;21.64;72.77
48652;BME280;34442;52.362;-1.302;2023-07-30T11:29:16;99592.28;;;21.68;68.76
48652;BME280;34442;52.362;-1.302;2023-07-30T11:31:43;99587.81;;;21.59;72.38
48652;BME280;34442;52.362;-1.302;2023-07-30T11:34:10;99604.22;;;21.59;72.28
48652;BME280;34442;52.362;-1.302;2023-07-30T11:36:36;99602.19;;;21.64;71.69
48652;BME280;34442;52.362;-1.302;2023-07-30T11:39:01;99603.09;;;21.60;71.37
48652;BME280;34442;52.362;-1.302;2023-07-30T11:41:27;99592.09;;;21.65;71.19
48652;BME280;34442;52.362;-1.302;2023-07-30T11:43:54;99592.91;;;21.65;71.10
48652;BME280;34442;52.362;-1.302;2023-07-30T11:46:20;99578.78;;;21.58;71.33
48652;BME280;34442;52.362;-1.302;2023-07-30T11:48:49;99578.22;;;21.42;71.57
48652;BME280;34442;52.362;-1.302;2023-07-30T11:51:33;99580.28;;;21.31;66.72
48652;BME280;34442;52.362;-1.302;2023-07-30T11:54:00;99586.44;;;21.23;71.32
48652;BME280;34442;52.362;-1.302;2023-07-30T11:56:28;99597.88;;;21.25;71.25
48652;BME280;34442;52.362;-1.302;2023-07-30T11:59:02;99593.97;;;21.13;69.23
48652;BME280;34442;52.362;-1.302;2023-07-30T12:01:30;99592.41;;;21.06;71.18
48652;BME280;34442;52.362;-1.302;2023-07-30T12:03:58;99589.00;;;21.15;70.80
48652;BME280;34442;52.362;-1.302;2023-07-30T12:06:23;99592.84;;;21.14;70.77
48652;BME280;34442;52.362;-1.302;2023-07-30T12:08:50;99598.47;;;21.03;71.28
48652;BME280;34442;52.362;-1.302;2023-07-30T12:11:17;99594.28;;;21.11;70.92
48652;BME280;34442;52.362;-1.302;2023-07-30T12:13:44;99599.44;;;21.13;71.13
48652;BME280;34442;52.362;-1.302;2023-07-30T12:16:17;99603.63;;;21.05;71.19
48652;BME280;34442;52.362;-1.302;2023-07-30T12:18:43;99614.28;;;21.06;71.53
48652;BME280;34442;52.362;-1.302;2023-07-30T12:21:08;99608.38;;;20.99;72.17
48652;BME280;34442;52.362;-1.302;2023-07-30T12:23:36;99612.00;;;20.95;72.67
48652;BME280;34442;52.362;-1.302;2023-07-30T12:26:03;99606.22;;;20.96;73.28
48652;BME280;34442;52.362;-1.302;2023-07-30T12:28:34;99593.75;;;21.09;73.24
48652;BME280;34442;52.362;-1.302;2023-07-30T12:31:00;99603.50;;;21.15;74.13
48652;BME280;34442;52.362;-1.302;2023-07-30T12:33:26;99602.00;;;21.23;74.68
48652;BME280;34442;52.362;-1.302;2023-07-30T12:35:51;99614.81;;;21.27;75.86
48652;BME280;34442;52.362;-1.302;2023-07-30T12:38:18;99614.16;;;21.36;76.41
48652;BME280;34442;52.362;-1.302;2023-07-30T12:40:43;99608.81;;;21.25;79.03
48652;BME280;34442;52.362;-1.302;2023-07-30T12:43:09;99604.00;;;20.98;81.57
48652;BME280;34442;52.362;-1.302;2023-07-30T12:45:34;99602.78;;;20.67;83.94
48652;BME280;34442;52.362;-1.302;2023-07-30T12:48:00;99609.63;;;20.40;86.23